Time;durP1;ratioP1;P1;durP2;ratioP2;P2;SDS_P1;SDS_P2;PMS_P1;PMS_P2;Temp;Humidity;BMP_temperature;BMP_pressure;BME280_temperature;BME280_humidity;BME280_pressure;Samples;Min_cycle;Max_cycle;Signal;HPM_P1;HPM_P2
2021/03/15 00:01:32;;;;;;;3.23;2.20;;;;;;;4.33;63.76;99878.19;6098725;29;20248;-74
2021/03/15 00:04:56;;;;;;;7.40;2.07;;;;;;;4.32;63.76;99882.75;6097428;29;20290;-74
2021/03/15 00:08:17;;;;;;;2.13;1.77;;;;;;;4.29;63.08;99888.53;6097275;29;20231;-74
2021/03/15 00:11:20;;;;;;;2.20;2.10;;;;;;;4.19;63.78;99895.31;6097696;29;20200;-73
2021/03/15 00:14:24;;;;;;;2.17;2.07;;;;;;;4.25;63.85;99886.44;6097706;29;20202;-73
2021/03/15 00:17:31;;;;;;;5.53;2.00;;;;;;;4.18;63.49;99880.19;6097930;29;20191;-73
2021/03/15 00:20:35;;;;;;;3.17;1.90;;;;;;;4.19;63.80;99895.31;6097866;29;20219;-74
2021/03/15 00:23:38;;;;;;;2.60;1.90;;;;;;;4.13;64.21;99898.84;6097180;29;20218;-74
2021/03/15 00:26:41;;;;;;;3.07;1.90;;;;;;;4.13;63.48;99893.44;6097750;29;20199;-73
2021/03/15 00:29:45;;;;;;;1.93;1.83;;;;;;;4.14;63.97;99890.53;6097588;29;20190;-74
2021/03/15 00:32:52;;;;;;;2.33;2.13;;;;;;;4.19;64.16;99892.63;6096250;29;20498;-73
2021/03/15 00:35:56;;;;;;;2.00;1.90;;;;;;;4.25;63.38;99906.19;6097563;29;20202;-73
2021/03/15 00:38:59;;;;;;;3.80;2.07;;;;;;;4.22;63.27;99895.78;6096181;29;20475;-74
2021/03/15 00:42:08;;;;;;;1.90;1.80;;;;;;;4.24;62.98;99890.16;6097096;29;20222;-74
2021/03/15 00:45:15;;;;;;;2.27;1.97;;;;;;;4.29;62.96;99893.94;6097270;29;20216;-74
2021/03/15 00:48:26;;;;;;;2.40;1.70;;;;;;;4.12;63.47;99897.16;6080657;29;20192;-73
2021/03/15 00:51:30;;;;;;;2.13;2.03;;;;;;;4.24;63.76;99900.97;6079242;29;20215;-73
2021/03/15 00:54:33;;;;;;;7.40;1.70;;;;;;;4.21;63.58;99901.38;6097132;29;20228;-74
2021/03/15 00:57:42;;;;;;;8.20;1.97;;;;;;;4.16;63.75;99911.94;6079182;29;20265;-73
2021/03/15 01:00:46;;;;;;;3.60;2.03;;;;;;;4.13;63.61;99904.22;6079145;29;20296;-73
2021/03/15 01:04:18;;;;;;;4.73;1.90;;;;;;;3.99;64.46;99913.25;6082735;29;20230;-73
2021/03/15 01:07:43;;;;;;;1.70;1.70;;;;;;;4.18;65.47;99901.78;6078628;29;20242;-74
2021/03/15 01:10:50;;;;;;;2.23;1.70;;;;;;;4.17;66.34;99900.09;6096700;29;20193;-73
2021/03/15 01:13:54;;;;;;;5.90;2.00;;;;;;;4.16;65.09;99909.25;6079887;29;20212;-74
2021/03/15 01:17:10;;;;;;;9.43;1.80;;;;;;;4.26;65.83;99910.53;6079692;29;20208;-73
2021/03/15 01:20:17;;;;;;;2.50;2.30;;;;;;;4.25;64.93;99906.19;6078603;29;20204;-73
2021/03/15 01:23:21;;;;;;;2.13;1.90;;;;;;;4.21;64.49;99912.19;6096134;29;20256;-73
2021/03/15 01:26:24;;;;;;;2.20;2.00;;;;;;;4.13;64.75;99915.03;6096461;29;20277;-74
2021/03/15 01:29:28;;;;;;;2.03;1.93;;;;;;;4.19;66.08;99908.81;6095038;29;20224;-73
2021/03/15 01:32:31;;;;;;;2.07;1.90;;;;;;;4.17;65.82;99913.59;6094968;29;20364;-73
2021/03/15 01:35:36;;;;;;;2.13;1.90;;;;;;;4.24;65.99;99922.56;6094954;29;20502;-74
2021/03/15 01:38:40;;;;;;;3.90;2.10;;;;;;;4.18;65.56;99917.97;6095864;29;20200;-74
2021/03/15 01:41:43;;;;;;;2.73;1.90;;;;;;;4.15;65.98;99918.34;6095732;29;20193;-73
2021/03/15 01:44:47;;;;;;;4.73;1.90;;;;;;;4.18;66.06;99928.78;6094620;29;20416;-73
2021/03/15 01:47:50;;;;;;;2.93;2.10;;;;;;;4.18;65.74;99934.16;6095583;29;20200;-75
2021/03/15 01:50:55;;;;;;;1.80;1.80;;;;;;;4.15;66.34;99918.34;6094602;29;20422;-73
2021/03/15 01:53:59;;;;;;;4.70;2.30;;;;;;;4.16;65.94;99925.44;6095430;29;20197;-74
2021/03/15 01:57:02;;;;;;;2.03;1.93;;;;;;;3.97;65.62;99926.13;6095761;29;20220;-74
2021/03/15 02:00:09;;;;;;;1.80;1.80;;;;;;;4.05;66.69;99939.47;6095544;29;20193;-74
2021/03/15 02:03:34;;;;;;;2.30;2.10;;;;;;;3.96;65.12;99930.69;6138453;23;20240;-74
2021/03/15 02:06:38;;;;;;;3.30;2.27;;;;;;;3.90;66.24;99946.84;6142150;29;20191;-74
2021/03/15 02:09:42;;;;;;;4.23;2.17;;;;;;;4.01;65.81;99930.09;6141998;29;20192;-74
2021/03/15 02:13:12;;;;;;;2.73;1.97;;;;;;;3.91;64.59;99932.28;6141952;29;20237;-74
2021/03/15 02:16:23;;;;;;;3.20;2.00;;;;;;;3.81;66.60;99938.03;6140515;29;20385;-73
2021/03/15 02:20:08;;;;;;;1.97;1.77;;;;;;;3.77;66.00;99932.19;6140875;29;20419;-74
2021/03/15 02:23:19;;;;;;;3.10;1.60;;;;;;;3.91;66.31;99927.75;6141891;29;20245;-76
2021/03/15 02:26:53;;;;;;;1.80;1.70;;;;;;;3.96;66.86;99924.44;6142168;29;20289;-74
2021/03/15 02:30:15;;;;;;;3.13;1.90;;;;;;;4.03;67.18;99925.34;6140557;29;20203;-75
2021/03/15 02:33:50;;;;;;;1.90;1.80;;;;;;;3.88;66.63;99916.53;6140508;29;20477;-75
2021/03/15 02:36:58;;;;;;;1.83;1.73;;;;;;;3.89;67.35;99934.38;6141224;29;20195;-75
2021/03/15 02:40:07;;;;;;;3.30;1.90;;;;;;;3.78;66.72;99920.38;6141796;29;20268;-75
2021/03/15 02:43:18;;;;;;;8.63;2.20;;;;;;;3.96;66.25;99935.25;6141711;29;20220;-75
2021/03/15 02:46:23;;;;;;;2.93;1.97;;;;;;;4.04;66.79;99948.59;6140306;29;20484;-75
2021/03/15 02:49:29;;;;;;;3.30;1.93;;;;;;;4.04;66.62;99944.03;6140368;29;20431;-75
2021/03/15 02:52:38;;;;;;;2.67;1.83;;;;;;;4.13;67.09;99944.72;6141345;29;20191;-75
2021/03/15 02:55:48;;;;;;;2.13;1.87;;;;;;;4.05;67.52;99955.66;6141285;29;20193;-75
2021/03/15 02:58:55;;;;;;;2.13;2.03;;;;;;;4.01;67.42;99957.06;6123924;29;20248;-75
2021/03/15 03:02:00;;;;;;;2.47;1.70;;;;;;;4.07;68.17;99953.59;6141125;29;20267;-74
2021/03/15 03:05:07;;;;;;;12.57;2.40;;;;;;;3.91;66.33;99953.88;6141108;29;20218;-75
2021/03/15 03:08:21;;;;;;;3.00;2.20;;;;;;;3.81;66.81;99954.22;6141077;29;20197;-75
2021/03/15 03:11:28;;;;;;;7.20;1.80;;;;;;;3.95;66.99;99960.56;6141236;29;20197;-74
2021/03/15 03:14:34;;;;;;;5.40;1.90;;;;;;;4.06;67.72;99957.31;6141451;29;20196;-75
2021/03/15 03:17:38;;;;;;;4.40;1.97;;;;;;;4.00;66.94;99953.56;6140302;29;20198;-75
2021/03/15 03:20:43;;;;;;;10.43;2.20;;;;;;;4.06;66.90;99951.91;6140908;29;20231;-75
2021/03/15 03:23:50;;;;;;;3.07;1.97;;;;;;;4.13;67.52;99952.81;6140150;29;20458;-75
2021/03/15 03:26:56;;;;;;;7.00;2.13;;;;;;;4.11;68.39;99955.69;6140575;29;20199;-75
2021/03/15 03:30:18;;;;;;;4.07;2.30;;;;;;;4.01;67.58;99959.78;6144681;29;20179;-75
2021/03/15 03:33:23;;;;;;;2.20;2.00;;;;;;;3.95;67.75;99949.78;6145382;29;20229;-75
2021/03/15 03:36:26;;;;;;;3.80;2.00;;;;;;;4.02;69.17;99966.84;6144477;29;20510;-74
2021/03/15 03:39:31;;;;;;;2.20;2.00;;;;;;;3.98;67.94;99965.59;6145279;29;20229;-74
2021/03/15 03:42:34;;;;;;;1.80;1.70;;;;;;;3.91;68.03;99967.38;6144333;29;20445;-74
2021/03/15 03:45:37;;;;;;;8.43;2.27;;;;;;;3.86;67.98;99964.44;6145116;29;20226;-74
2021/03/15 03:48:42;;;;;;;9.10;2.17;;;;;;;3.87;68.02;99963.41;6145477;29;20237;-74
2021/03/15 03:51:50;;;;;;;6.10;2.10;;;;;;;3.54;68.69;99931.59;6145242;29;20196;-74
2021/03/15 03:54:59;;;;;;;4.50;2.20;;;;;;;3.87;68.48;99975.03;6145098;29;20198;-75
2021/03/15 03:58:08;;;;;;;2.90;2.37;;;;;;;3.70;69.21;99974.47;6143981;29;20416;-74
2021/03/15 04:01:13;;;;;;;4.60;2.20;;;;;;;3.73;68.47;99979.47;6144213;29;20213;-75
2021/03/15 04:04:38;;;;;;;4.60;2.20;;;;;;;3.40;68.90;99972.09;6141728;29;20238;-75
2021/03/15 04:07:46;;;;;;;2.87;2.50;;;;;;;3.32;67.99;99938.00;6145101;29;20199;-75
2021/03/15 04:10:52;;;;;;;6.77;2.13;;;;;;;3.68;68.00;99986.47;6144978;29;20195;-75
2021/03/15 04:13:57;;;;;;;3.30;2.00;;;;;;;3.72;68.20;99977.78;6144928;29;20196;-74
2021/03/15 04:17:03;;;;;;;25.53;2.70;;;;;;;3.71;69.07;99986.94;6144800;29;20267;-74
2021/03/15 04:20:08;;;;;;;24.87;2.23;;;;;;;3.85;69.85;99982.50;6143337;29;20360;-75
2021/03/15 04:23:15;;;;;;;5.57;2.30;;;;;;;3.77;70.08;99980.75;6144292;29;20192;-74
2021/03/15 04:26:21;;;;;;;9.30;2.27;;;;;;;3.82;69.80;99987.44;6144176;29;20227;-74
2021/03/15 04:29:26;;;;;;;11.13;2.53;;;;;;;3.88;69.80;99997.47;6144592;29;20258;-74
2021/03/15 04:32:30;;;;;;;7.60;1.90;;;;;;;3.80;70.00;99984.91;6143437;29;20196;-74
2021/03/15 04:35:36;;;;;;;5.67;2.40;;;;;;;3.87;69.71;99988.53;6144278;29;20197;-74
2021/03/15 04:38:40;;;;;;;7.50;1.93;;;;;;;3.82;69.33;99992.84;6143849;29;20254;-74
2021/03/15 04:41:45;;;;;;;3.83;2.00;;;;;;;3.79;68.99;99989.50;6144327;29;20192;-74
2021/03/15 04:44:48;;;;;;;2.00;1.87;;;;;;;3.85;68.48;100008.66;6142668;29;20407;-74
2021/03/15 04:47:53;;;;;;;8.07;2.00;;;;;;;3.75;69.10;99999.00;6142862;29;20475;-76
2021/03/15 04:51:00;;;;;;;3.87;1.80;;;;;;;3.76;69.30;100005.22;6143670;29;20199;-75
2021/03/15 04:54:04;;;;;;;5.20;2.43;;;;;;;3.73;69.40;100001.06;6127134;29;20281;-74
2021/03/15 04:57:11;;;;;;;7.40;2.03;;;;;;;3.83;69.01;100006.13;6143421;29;20191;-75
2021/03/15 05:00:18;;;;;;;3.00;2.00;;;;;;;3.69;70.24;100010.59;6142619;29;20375;-75
2021/03/15 05:03:34;;;;;;;3.37;3.17;;;;;;;3.71;69.73;100013.91;6143289;29;20234;-75
2021/03/15 05:06:39;;;;;;;4.67;2.47;;;;;;;3.60;70.71;100011.72;6157223;29;20226;-75
2021/03/15 05:09:48;;;;;;;2.23;2.10;;;;;;;3.64;71.15;100013.03;6143630;29;20229;-75
2021/03/15 05:12:52;;;;;;;3.23;2.30;;;;;;;3.55;70.94;100011.47;6143269;29;20220;-75
2021/03/15 05:15:57;;;;;;;8.37;2.70;;;;;;;3.63;71.83;100015.91;6143226;29;20198;-75
2021/03/15 05:19:02;;;;;;;6.60;2.60;;;;;;;3.62;71.10;100014.25;6142959;29;20239;-75
2021/03/15 05:22:07;;;;;;;7.03;2.40;;;;;;;3.66;71.38;100024.44;6143369;29;20243;-75
2021/03/15 05:25:14;;;;;;;3.47;2.47;;;;;;;3.64;70.66;100013.03;6157098;29;20230;-75
2021/03/15 05:28:26;;;;;;;8.17;2.40;;;;;;;3.69;70.38;100032.16;6141930;29;20367;-76
2021/03/15 05:31:30;;;;;;;8.97;2.27;;;;;;;3.62;70.88;100025.84;6141872;29;20434;-74
2021/03/15 05:34:35;;;;;;;8.27;2.33;;;;;;;3.70;70.61;100033.81;6141774;29;20474;-75
2021/03/15 05:37:41;;;;;;;8.63;2.60;;;;;;;3.70;70.38;100033.81;6141675;29;20389;-75
2021/03/15 05:40:48;;;;;;;10.87;2.63;;;;;;;3.63;70.98;100043.72;6142548;29;20199;-75
2021/03/15 05:44:16;;;;;;;6.13;2.73;;;;;;;3.48;71.40;100029.44;6142802;29;20192;-75
2021/03/15 05:47:45;;;;;;;10.37;3.23;;;;;;;3.46;71.89;100044.97;6142848;29;20196;-75
2021/03/15 05:51:17;;;;;;;4.40;2.37;;;;;;;3.32;72.04;100045.00;6141185;29;20359;-76
2021/03/15 05:54:48;;;;;;;8.40;2.57;;;;;;;3.48;72.07;100050.16;6141757;29;20191;-74
2021/03/15 05:58:17;;;;;;;9.40;2.80;;;;;;;3.69;71.69;100053.75;6142483;29;20192;-76
2021/03/15 06:01:49;;;;;;;5.23;2.67;;;;;;;3.71;70.90;100070.56;6142449;29;20270;-74
2021/03/15 06:05:17;;;;;;;18.57;2.90;;;;;;;3.56;71.07;100059.00;6118630;29;20219;-75
2021/03/15 06:08:30;;;;;;;8.63;2.93;;;;;;;3.63;70.71;100076.06;6118056;29;20227;-74
2021/03/15 06:11:42;;;;;;;16.27;3.33;;;;;;;3.69;71.09;100069.94;6117844;29;20195;-76
2021/03/15 06:14:48;;;;;;;11.07;2.90;;;;;;;3.56;70.92;100069.78;6118308;29;20195;-76
2021/03/15 06:17:53;;;;;;;7.63;2.63;;;;;;;3.41;72.56;100082.47;6117318;29;20198;-77
2021/03/15 06:20:57;;;;;;;10.63;2.60;;;;;;;3.44;71.84;100087.47;6117302;29;20271;-77
2021/03/15 06:24:01;;;;;;;7.90;2.73;;;;;;;3.55;71.38;100089.66;6118162;29;20269;-77
2021/03/15 06:27:07;;;;;;;18.97;2.87;;;;;;;3.68;70.95;100087.13;6118514;29;20267;-76
2021/03/15 06:30:11;;;;;;;9.10;2.70;;;;;;;3.54;71.30;100093.41;6117048;29;20361;-76
2021/03/15 06:33:22;;;;;;;4.67;2.50;;;;;;;3.70;71.15;100087.75;6118633;29;20230;-76
2021/03/15 06:36:26;;;;;;;9.27;2.77;;;;;;;3.79;69.36;100092.03;6116830;29;20390;-75
2021/03/15 06:39:30;;;;;;;10.33;2.37;;;;;;;3.69;69.91;100102.31;6118152;29;20192;-75
2021/03/15 06:42:34;;;;;;;12.80;2.70;;;;;;;3.63;70.08;100103.06;6117710;29;20254;-75
2021/03/15 06:45:38;;;;;;;12.47;2.30;;;;;;;3.66;70.08;100097.28;6116512;29;20380;-75
2021/03/15 06:48:42;;;;;;;8.43;2.93;;;;;;;3.53;70.54;100107.91;6117637;29;20217;-75
2021/03/15 06:52:06;;;;;;;4.50;2.40;;;;;;;3.59;69.83;100107.16;6116547;29;20256;-75
2021/03/15 06:55:11;;;;;;;3.20;2.13;;;;;;;3.60;69.73;100114.22;6117701;29;20203;-76
2021/03/15 06:58:25;;;;;;;8.27;2.73;;;;;;;3.54;69.25;100114.16;6117508;29;20234;-76
2021/03/15 07:01:29;;;;;;;4.87;2.30;;;;;;;3.61;69.34;100124.00;6118109;29;20208;-76
2021/03/15 07:04:34;;;;;;;11.00;2.43;;;;;;;3.74;68.87;100126.84;6143899;29;20246;-76
2021/03/15 07:07:39;;;;;;;4.50;2.17;;;;;;;3.97;68.79;100131.22;6144979;29;20246;-75
2021/03/15 07:10:45;;;;;;;1.87;1.80;;;;;;;3.90;68.38;100130.34;6145817;29;20215;-75
2021/03/15 07:13:49;;;;;;;8.93;2.50;;;;;;;3.91;68.79;100126.59;6144626;29;20191;-75
2021/03/15 07:16:57;;;;;;;7.23;2.57;;;;;;;4.07;67.63;100137.16;6145877;29;20197;-76
2021/03/15 07:20:01;;;;;;;4.73;2.17;;;;;;;4.02;68.75;100145.00;6145367;29;20194;-74
2021/03/15 07:23:07;;;;;;;10.63;2.60;;;;;;;3.98;68.79;100151.81;6145231;29;20465;-76
2021/03/15 07:26:16;;;;;;;2.63;2.43;;;;;;;4.09;68.25;100143.19;6128621;29;20217;-76
2021/03/15 07:29:20;;;;;;;9.13;2.17;;;;;;;4.07;67.64;100145.25;6143991;29;20238;-76
2021/03/15 07:32:39;;;;;;;22.00;2.70;;;;;;;4.16;67.70;100149.50;6145267;29;20222;-75
2021/03/15 07:35:44;;;;;;;13.20;2.63;;;;;;;4.12;67.09;100153.59;6144259;29;20410;-75
2021/03/15 07:38:53;;;;;;;6.80;2.57;;;;;;;4.09;67.52;100162.09;6144026;29;20190;-75
2021/03/15 07:42:13;;;;;;;5.47;2.37;;;;;;;4.09;67.50;100167.47;6145246;29;20190;-75
2021/03/15 07:45:28;;;;;;;8.67;2.20;;;;;;;4.12;66.74;100167.09;6143614;29;20572;-75
2021/03/15 07:48:33;;;;;;;4.57;2.23;;;;;;;4.18;66.68;100177.16;6144748;29;20393;-75
2021/03/15 07:51:37;;;;;;;8.27;3.30;;;;;;;4.23;66.10;100185.50;6143532;29;20251;-76
2021/03/15 07:54:56;;;;;;;7.87;3.13;;;;;;;4.23;66.17;100185.50;6144980;29;20215;-75
2021/03/15 07:58:00;;;;;;;9.17;2.90;;;;;;;4.26;66.16;100179.72;6144616;29;20221;-76
2021/03/15 08:01:05;;;;;;;11.13;2.47;;;;;;;4.31;65.97;100190.78;6144788;29;20250;-76
2021/03/15 08:04:19;;;;;;;10.20;2.33;;;;;;;4.33;65.53;100186.03;6143458;29;20428;-75
2021/03/15 08:07:24;;;;;;;9.23;2.37;;;;;;;4.33;65.76;100196.81;6144642;29;20219;-76
2021/03/15 08:10:27;;;;;;;6.33;2.43;;;;;;;4.46;66.21;100213.16;6144520;29;20192;-75
2021/03/15 08:13:36;;;;;;;13.60;2.40;;;;;;;4.49;66.48;100207.38;6143593;29;20474;-75
2021/03/15 08:16:40;;;;;;;9.17;2.33;;;;;;;4.66;65.36;100206.09;6144318;29;20196;-75
2021/03/15 08:19:45;;;;;;;19.93;2.80;;;;;;;4.71;64.99;100214.44;6144244;29;20239;-76
2021/03/15 08:22:54;;;;;;;7.00;2.60;;;;;;;4.62;66.01;100207.50;6142975;29;20207;-75
2021/03/15 08:26:04;;;;;;;18.87;3.20;;;;;;;4.83;64.30;100210.16;6143049;29;20523;-75
2021/03/15 08:29:08;;;;;;;9.50;2.70;;;;;;;4.64;64.62;100229.75;6144126;29;20198;-75
2021/03/15 08:32:14;;;;;;;10.27;2.47;;;;;;;4.74;64.45;100227.56;6142745;29;20356;-75
2021/03/15 08:35:19;;;;;;;5.90;1.97;;;;;;;4.83;64.10;100237.19;6144084;29;20196;-76
2021/03/15 08:38:31;;;;;;;9.77;2.10;;;;;;;4.81;63.28;100239.28;6144101;29;20197;-76
2021/03/15 08:41:34;;;;;;;2.20;2.00;;;;;;;4.85;62.61;100243.25;6143564;29;20199;-76
2021/03/15 08:44:38;;;;;;;6.93;2.10;;;;;;;4.92;62.54;100246.88;6144018;29;20255;-76
2021/03/15 08:47:52;;;;;;;5.97;1.77;;;;;;;4.98;62.77;100240.66;6143106;29;20218;-76
2021/03/15 08:50:59;;;;;;;10.77;2.10;;;;;;;5.15;62.37;100262.00;6143501;29;20241;-76
2021/03/15 08:54:04;;;;;;;12.73;2.70;;;;;;;5.27;62.47;100257.72;6143413;29;20196;-76
2021/03/15 08:57:32;;;;;;;17.10;2.80;;;;;;;5.33;62.81;100256.94;6143542;29;20226;-75
2021/03/15 09:00:37;;;;;;;16.53;2.60;;;;;;;5.33;62.88;100259.66;6143415;28;20196;-76
2021/03/15 09:03:58;;;;;;;11.67;2.73;;;;;;;5.33;62.38;100265.06;6125973;29;20314;-76
2021/03/15 09:07:04;;;;;;;9.53;2.67;;;;;;;5.40;63.09;100268.66;6118776;29;20221;-75
2021/03/15 09:10:43;;;;;;;6.30;2.83;;;;;;;5.48;62.06;100273.91;6118494;29;20189;-76
2021/03/15 09:13:46;;;;;;;16.10;3.03;;;;;;;5.15;63.07;100283.66;6118310;29;20230;-75
2021/03/15 09:16:52;;;;;;;26.63;3.57;;;;;;;5.26;63.24;100280.41;6118343;29;20401;-75
2021/03/15 09:19:56;;;;;;;22.93;3.10;;;;;;;5.41;63.53;100289.28;6119494;29;20190;-75
2021/03/15 09:23:36;;;;;;;20.87;3.20;;;;;;;5.41;63.78;100289.28;6118706;29;20192;-76
2021/03/15 09:26:44;;;;;;;30.77;3.73;;;;;;;5.53;63.61;100287.69;6096927;29;20301;-76
2021/03/15 09:29:53;;;;;;;16.43;3.90;;;;;;;5.26;63.94;100302.91;6119010;29;20191;-76
2021/03/15 09:32:58;;;;;;;13.97;3.10;;;;;;;5.36;64.37;100302.56;6118345;29;20191;-77
2021/03/15 09:36:07;;;;;;;17.80;3.53;;;;;;;5.53;63.19;100293.09;6119349;29;20274;-76
2021/03/15 09:39:12;;;;;;;11.03;3.47;;;;;;;5.45;63.35;100312.19;6117979;29;20497;-76
2021/03/15 09:42:19;;;;;;;19.97;3.60;;;;;;;5.53;62.90;100306.63;6118293;29;20237;-76
2021/03/15 09:45:35;;;;;;;13.50;3.50;;;;;;;5.66;63.75;100304.00;6117577;29;20453;-76
2021/03/15 09:48:40;;;;;;;17.47;3.47;;;;;;;5.67;63.17;100316.53;6117363;29;20221;-76
2021/03/15 09:51:49;;;;;;;17.40;3.13;;;;;;;5.56;63.88;100315.19;6117401;29;20191;-74
2021/03/15 09:55:09;;;;;;;16.67;4.20;;;;;;;5.61;63.82;100320.84;6100749;29;20421;-75
2021/03/15 09:58:17;;;;;;;15.97;3.87;;;;;;;5.85;63.05;100314.19;6101190;29;20210;-76
2021/03/15 10:01:30;;;;;;;29.83;3.63;;;;;;;5.95;62.69;100313.81;6101258;29;20230;-76
2021/03/15 10:05:00;;;;;;;18.57;3.47;;;;;;;6.06;62.39;100316.78;6131616;29;20191;-75
2021/03/15 10:08:36;;;;;;;21.57;3.83;;;;;;;6.06;62.12;100327.59;6117572;29;20198;-75
2021/03/15 10:12:00;;;;;;;20.27;3.77;;;;;;;6.11;62.93;100340.56;6118310;29;20191;-75
2021/03/15 10:15:15;;;;;;;20.17;4.03;;;;;;;6.18;61.52;100336.03;6117941;29;20199;-75
2021/03/15 10:18:39;;;;;;;25.57;3.57;;;;;;;6.03;61.35;100335.31;6116804;29;20552;-75
2021/03/15 10:21:44;;;;;;;26.40;3.97;;;;;;;6.05;61.85;100342.19;6100370;29;20207;-75
2021/03/15 10:24:49;;;;;;;28.57;3.60;;;;;;;6.18;61.51;100342.28;6117928;29;20198;-75
2021/03/15 10:27:58;;;;;;;10.13;2.90;;;;;;;6.28;61.60;100347.31;6101518;29;20224;-75
2021/03/15 10:31:10;;;;;;;32.67;3.73;;;;;;;6.22;61.33;100343.53;6131744;29;20214;-75
2021/03/15 10:34:17;;;;;;;13.20;3.33;;;;;;;6.32;60.82;100344.00;6117621;29;20241;-75
2021/03/15 10:37:36;;;;;;;23.27;4.43;;;;;;;6.41;59.96;100351.97;6132226;29;20265;-75
2021/03/15 10:40:54;;;;;;;31.77;3.70;;;;;;;6.53;59.58;100355.75;6100906;29;20208;-76
2021/03/15 10:44:00;;;;;;;24.73;3.50;;;;;;;6.55;58.67;100361.84;6115780;29;20211;-76
2021/03/15 10:47:13;;;;;;;17.00;4.10;;;;;;;6.65;58.71;100365.00;6116053;29;20235;-76
2021/03/15 10:50:29;;;;;;;15.00;2.33;;;;;;;6.51;55.97;100368.69;6131787;29;20211;-75
2021/03/15 10:54:11;;;;;;;13.27;2.80;;;;;;;6.55;55.07;100372.69;6091524;29;20515;-75
2021/03/15 10:57:33;;;;;;;10.27;2.70;;;;;;;6.65;55.70;100370.41;6115268;29;20480;-76
2021/03/15 11:00:41;;;;;;;15.53;2.07;;;;;;;6.76;53.46;100373.38;6099700;29;20566;-77
2021/03/15 11:04:12;;;;;;;17.40;2.10;;;;;;;6.75;52.66;100370.88;6133672;29;20388;-78
2021/03/15 11:07:31;;;;;;;6.30;1.80;;;;;;;6.84;52.53;100380.47;6124210;29;20419;-76
2021/03/15 11:10:37;;;;;;;21.80;3.60;;;;;;;6.70;55.97;100378.78;6141227;29;20192;-76
2021/03/15 11:13:53;;;;;;;18.13;4.50;;;;;;;6.74;53.92;100370.03;6122992;29;20438;-76
2021/03/15 11:17:01;;;;;;;12.83;2.67;;;;;;;6.90;53.66;100396.78;6123016;29;20242;-75
2021/03/15 11:20:15;;;;;;;16.07;2.17;;;;;;;6.93;53.69;100390.13;6123604;29;20199;-75
2021/03/15 11:23:33;;;;;;;18.97;2.80;;;;;;;6.91;54.11;100386.75;6123924;29;20204;-75
2021/03/15 11:26:48;;;;;;;14.77;2.30;;;;;;;6.90;54.72;100379.69;6122706;29;20227;-76
2021/03/15 11:29:56;;;;;;;15.17;2.80;;;;;;;7.10;54.42;100396.84;6154450;29;20207;-76
2021/03/15 11:33:28;;;;;;;14.50;2.40;;;;;;;7.12;54.60;100399.31;6124329;29;20262;-76
2021/03/15 11:36:53;;;;;;;16.00;2.47;;;;;;;7.07;54.39;100391.81;6123835;29;20208;-75
2021/03/15 11:40:12;;;;;;;18.03;2.83;;;;;;;7.26;54.68;100399.16;6123900;29;20239;-75
2021/03/15 11:43:26;;;;;;;12.03;2.33;;;;;;;7.34;55.28;100398.97;6123932;29;20275;-74
2021/03/15 11:46:39;;;;;;;16.00;2.20;;;;;;;7.42;53.34;100401.47;6123191;29;20299;-76
2021/03/15 11:49:47;;;;;;;11.77;1.63;;;;;;;7.48;52.40;100406.09;6158528;29;20264;-75
2021/03/15 11:52:59;;;;;;;2.20;1.60;;;;;;;7.33;52.69;100402.72;6126909;29;20216;-75
2021/03/15 11:56:10;;;;;;;1.83;1.47;;;;;;;7.45;52.06;100411.91;6127323;29;20474;-76
2021/03/15 11:59:14;;;;;;;1.63;1.40;;;;;;;7.38;52.02;100411.09;6127416;29;20542;-77
2021/03/15 12:02:23;;;;;;;1.23;1.20;;;;;;;7.64;51.20;100417.56;6122748;29;20516;-77
2021/03/15 12:05:34;;;;;;;7.13;1.60;;;;;;;7.42;52.28;100412.31;6104895;29;20193;-77
2021/03/15 12:08:46;;;;;;;6.53;1.50;;;;;;;7.50;49.95;100414.00;6103564;29;20549;-75
2021/03/15 12:11:50;;;;;;;2.20;1.10;;;;;;;7.61;49.28;100432.41;6103623;29;20211;-76
2021/03/15 12:14:56;;;;;;;2.03;1.20;;;;;;;7.70;45.90;100435.75;6134302;29;20398;-76
2021/03/15 12:18:18;;;;;;;6.07;1.57;;;;;;;7.65;47.10;100435.56;6120677;29;20193;-76
2021/03/15 12:21:26;;;;;;;2.80;1.00;;;;;;;7.73;47.49;100443.50;6103758;29;20205;-76
2021/03/15 12:24:51;;;;;;;6.47;1.50;;;;;;;7.87;46.91;100431.56;6103614;29;20212;-76
2021/03/15 12:27:57;;;;;;;2.40;0.90;;;;;;;7.86;46.44;100441.59;6103706;29;20235;-76
2021/03/15 12:31:01;;;;;;;1.43;1.30;;;;;;;7.65;48.52;100438.25;6102726;29;20267;-75
2021/03/15 12:34:07;;;;;;;1.70;1.23;;;;;;;7.62;48.11;100444.09;6134607;29;20189;-76
2021/03/15 12:37:12;;;;;;;1.15;1.15;;;;;;;7.82;48.73;100455.81;6102339;29;20527;-74
2021/03/15 12:40:20;;;;;;;1.60;1.10;;;;;;;7.77;48.37;100450.16;6133879;29;20448;-74
2021/03/15 12:43:25;;;;;;;1.80;1.10;;;;;;;7.79;46.99;100445.34;6102706;29;20309;-74
2021/03/15 12:46:48;;;;;;;2.57;1.00;;;;;;;7.76;48.09;100456.63;6119257;29;20213;-75
2021/03/15 12:50:00;;;;;;;1.10;1.10;;;;;;;7.76;47.95;100462.06;6102568;29;20211;-75
2021/03/15 12:53:09;;;;;;;1.23;1.20;;;;;;;7.66;47.40;100472.50;6102743;29;20513;-76
2021/03/15 12:56:24;;;;;;;2.67;1.07;;;;;;;7.56;47.45;100473.75;6102665;29;20552;-75
2021/03/15 12:59:27;;;;;;;2.53;0.87;;;;;;;7.59;45.55;100483.38;6133631;29;20441;-75
2021/03/15 13:02:33;;;;;;;1.10;0.90;;;;;;;7.72;46.50;100482.53;6106558;29;20279;-75
2021/03/15 13:05:37;;;;;;;1.50;1.20;;;;;;;7.64;45.71;100474.59;6157302;29;20362;-75
2021/03/15 13:09:00;;;;;;;1.07;1.07;;;;;;;7.65;45.54;100487.13;6142794;29;20256;-75
2021/03/15 13:12:08;;;;;;;1.10;1.10;;;;;;;7.67;46.35;100485.88;6142194;29;20481;-75
2021/03/15 13:15:13;;;;;;;6.17;1.13;;;;;;;7.76;47.50;100494.66;6143027;29;20188;-75
2021/03/15 13:18:33;;;;;;;1.90;1.20;;;;;;;7.68;47.11;100492.16;6143018;29;20255;-75
2021/03/15 13:21:37;;;;;;;3.00;1.40;;;;;;;7.68;49.11;100503.03;6141897;29;20188;-75
2021/03/15 13:24:45;;;;;;;1.47;1.40;;;;;;;7.68;49.47;100513.88;6157074;29;20188;-75
2021/03/15 13:27:53;;;;;;;3.50;1.57;;;;;;;7.57;48.69;100507.16;6125628;29;20238;-75
2021/03/15 13:31:00;;;;;;;4.00;1.40;;;;;;;7.53;47.08;100514.03;6126465;29;20188;-75
2021/03/15 13:34:06;;;;;;;3.57;1.30;;;;;;;7.31;51.89;100526.94;6125514;29;20279;-75
2021/03/15 13:37:18;;;;;;;1.60;1.50;;;;;;;7.16;52.18;100520.81;6142658;29;20204;-74
2021/03/15 13:40:41;;;;;;;2.53;1.80;;;;;;;7.24;53.81;100533.38;6124407;29;20582;-74
2021/03/15 13:43:59;;;;;;;3.13;2.03;;;;;;;7.02;55.80;100548.91;6124629;29;20204;-74
2021/03/15 13:47:12;;;;;;;5.43;2.13;;;;;;;6.76;56.90;100537.91;6124541;29;20228;-75
2021/03/15 13:50:17;;;;;;;6.67;1.87;;;;;;;6.81;57.80;100554.41;6125368;29;20243;-75
2021/03/15 13:53:23;;;;;;;2.43;1.30;;;;;;;6.68;55.96;100554.31;6157061;29;20246;-75
2021/03/15 13:56:39;;;;;;;2.50;1.70;;;;;;;6.74;56.08;100567.09;6124364;29;20204;-75
2021/03/15 13:59:53;;;;;;;11.13;2.20;;;;;;;6.66;59.46;100567.25;6124047;29;20498;-75
2021/03/15 14:02:57;;;;;;;3.13;2.50;;;;;;;6.48;61.07;100575.03;6147521;29;20264;-75
2021/03/15 14:06:03;;;;;;;3.23;2.67;;;;;;;6.46;61.83;100575.25;6101841;29;20215;-75
2021/03/15 14:09:10;;;;;;;8.37;2.80;;;;;;;6.13;64.09;100561.44;6100408;29;20231;-75
2021/03/15 14:12:19;;;;;;;4.80;2.80;;;;;;;6.24;64.38;100587.97;6100147;29;20394;-75
2021/03/15 14:15:33;;;;;;;8.13;2.63;;;;;;;6.19;65.20;100587.72;6132847;29;20214;-74
2021/03/15 14:18:51;;;;;;;3.67;2.73;;;;;;;6.22;65.48;100597.34;6117408;29;20252;-74
2021/03/15 14:22:28;;;;;;;2.63;2.53;;;;;;;6.05;66.36;100596.78;6096328;29;20215;-76
2021/03/15 14:25:39;;;;;;;4.90;2.50;;;;;;;6.20;66.23;100600.25;6100643;29;20207;-75
2021/03/15 14:28:59;;;;;;;3.17;2.87;;;;;;;6.10;66.66;100617.84;6101390;29;20260;-75
2021/03/15 14:32:19;;;;;;;8.03;2.40;;;;;;;6.17;66.91;100622.31;6132205;29;20478;-75
2021/03/15 14:35:49;;;;;;;2.70;2.50;;;;;;;6.06;66.99;100625.50;6106942;29;20258;-75
2021/03/15 14:39:31;;;;;;;2.50;2.40;;;;;;;5.93;68.25;100638.91;6108936;29;20209;-75
2021/03/15 14:42:35;;;;;;;2.00;1.90;;;;;;;5.86;67.63;100643.41;6116748;29;20357;-74
2021/03/15 14:45:50;;;;;;;5.30;2.13;;;;;;;5.80;68.19;100630.63;6131725;29;20207;-74
2021/03/15 14:48:59;;;;;;;2.50;2.20;;;;;;;5.61;68.05;100639.34;6116209;29;20279;-74
2021/03/15 14:52:13;;;;;;;5.17;2.03;;;;;;;5.50;69.01;100642.53;6101543;29;20199;-74
2021/03/15 14:55:19;;;;;;;2.43;2.23;;;;;;;5.52;69.20;100657.56;6100014;29;20208;-75
2021/03/15 14:58:23;;;;;;;2.10;2.03;;;;;;;5.61;68.86;100648.31;6116488;29;20195;-74